Time;durP1;ratioP1;P1;durP2;ratioP2;P2;SDS_P1;SDS_P2;PMS_P1;PMS_P2;Temp;Humidity;BMP_temperature;BMP_pressure;BME280_temperature;BME280_humidity;BME280_pressure;Samples;Min_cycle;Max_cycle;Signal;HPM_P1;HPM_P2
2022/11/30 00:01:13;;;;;;;30.40;13.07;;;6.10;99.90;;;;;;6123300;19;19919;-67
2022/11/30 00:03:17;;;;;;;28.83;12.18;;;;;;;;;;6124278;19;19915;-67
2022/11/30 00:05:22;;;;;;;29.88;13.43;;;;;;;;;;6119313;19;20025;-67
2022/11/30 00:07:25;;;;;;;29.60;12.75;;;6.10;99.90;;;;;;6122761;19;19922;-67
2022/11/30 00:09:29;;;;;;;23.95;11.88;;;6.10;99.90;;;;;;6124399;19;19915;-67
2022/11/30 00:11:34;;;;;;;26.75;12.82;;;6.10;99.90;;;;;;6124803;19;19978;-67
2022/11/30 00:13:40;;;;;;;28.45;13.07;;;5.90;99.90;;;;;;6124904;19;20282;-67
2022/11/30 00:15:44;;;;;;;28.50;13.02;;;6.20;99.90;;;;;;6122536;19;19936;-66
2022/11/30 00:17:48;;;;;;;26.13;12.25;;;6.20;99.90;;;;;;6124073;19;19918;-67
2022/11/30 00:19:52;;;;;;;28.95;13.45;;;6.10;99.90;;;;;;6124659;19;19969;-67
2022/11/30 00:21:56;;;;;;;33.40;13.35;;;;;;;;;;6123890;19;19943;-67
2022/11/30 00:24:00;;;;;;;28.15;13.45;;;;;;;;;;6123915;19;20333;-67
2022/11/30 00:26:05;;;;;;;29.15;13.07;;;6.50;99.90;;;;;;6123050;19;19915;-67
2022/11/30 00:28:09;;;;;;;34.35;14.93;;;6.10;99.90;;;;;;6125691;19;19915;-67
2022/11/30 00:30:19;;;;;;;33.15;13.68;;;6.20;99.90;;;;;;6129130;19;19918;-68
2022/11/30 00:32:23;;;;;;;32.15;13.93;;;6.00;99.90;;;;;;6129473;19;20290;-66
2022/11/30 00:34:27;;;;;;;30.92;13.15;;;6.20;99.90;;;;;;6129249;19;19919;-67
2022/11/30 00:36:31;;;;;;;33.83;13.82;;;6.10;99.90;;;;;;6129256;19;19948;-67
2022/11/30 00:38:35;;;;;;;29.35;13.82;;;6.10;99.90;;;;;;6130830;19;19936;-67
2022/11/30 00:40:40;;;;;;;28.02;13.48;;;6.20;99.90;;;;;;6132707;19;19939;-67
2022/11/30 00:42:44;;;;;;;36.65;13.75;;;6.10;99.90;;;;;;6131383;19;19921;-67
2022/11/30 00:44:48;;;;;;;27.90;12.57;;;6.10;99.90;;;;;;6129084;19;19918;-67
2022/11/30 00:46:54;;;;;;;31.75;13.80;;;6.10;99.90;;;;;;6127733;19;19923;-67
2022/11/30 00:48:58;;;;;;;34.20;14.55;;;6.20;99.90;;;;;;6129295;19;20357;-68
2022/11/30 00:51:02;;;;;;;28.60;12.73;;;5.90;99.90;;;;;;6127635;19;20024;-67
2022/11/30 00:53:06;;;;;;;29.17;14.15;;;5.90;99.90;;;;;;6128586;19;19915;-67
2022/11/30 00:55:11;;;;;;;27.75;12.77;;;6.10;99.90;;;;;;6129236;19;19935;-67
2022/11/30 00:57:15;;;;;;;28.98;13.23;;;5.90;99.90;;;;;;6129815;19;19943;-67
2022/11/30 00:59:19;;;;;;;29.27;13.45;;;;;;;;;;6129094;19;19922;-67
2022/11/30 01:01:23;;;;;;;33.00;13.52;;;;;;;;;;6128511;19;19948;-67
2022/11/30 01:03:29;;;;;;;29.33;13.05;;;6.00;99.90;;;;;;6128601;19;19918;-67
2022/11/30 01:05:35;;;;;;;29.60;13.82;;;6.30;99.90;;;;;;6128923;19;19926;-68
2022/11/30 01:07:39;;;;;;;29.67;13.30;;;6.00;99.90;;;;;;6127821;19;20325;-67
2022/11/30 01:09:43;;;;;;;29.45;13.52;;;6.10;99.90;;;;;;6128337;19;19939;-67
2022/11/30 01:11:47;;;;;;;28.88;13.10;;;6.00;99.90;;;;;;6128433;19;19925;-67
2022/11/30 01:13:51;;;;;;;27.38;13.02;;;;;;;;;;6130508;19;19944;-67
2022/11/30 01:15:55;;;;;;;27.15;12.45;;;;;;;;;;6127220;19;20290;-67
2022/11/30 01:18:00;;;;;;;27.58;12.15;;;6.20;99.90;;;;;;6128186;19;19947;-67
2022/11/30 01:20:09;;;;;;;29.20;12.82;;;6.10;99.90;;;;;;6128948;19;20272;-67
2022/11/30 01:22:13;;;;;;;27.80;12.10;;;5.90;99.90;;;;;;6128049;19;19910;-67
2022/11/30 01:24:17;;;;;;;23.92;11.57;;;6.30;99.90;;;;;;6126001;19;19939;-67
2022/11/30 01:26:21;;;;;;;26.95;12.95;;;7.00;99.90;;;;;;6127587;19;19915;-67
2022/11/30 01:28:25;;;;;;;27.88;12.30;;;6.10;99.90;;;;;;6128072;19;20376;-67
2022/11/30 01:30:28;;;;;;;27.25;11.95;;;6.20;99.90;;;;;;6128254;19;19947;-67
2022/11/30 01:32:32;;;;;;;25.83;12.50;;;6.00;99.90;;;;;;6128934;19;19918;-66
2022/11/30 01:34:36;;;;;;;25.77;11.80;;;6.00;99.90;;;;;;6128163;19;19938;-66
2022/11/30 01:36:43;;;;;;;27.35;12.50;;;6.20;99.90;;;;;;6130360;19;19951;-67
2022/11/30 01:38:50;;;;;;;25.50;13.38;;;6.00;99.90;;;;;;6128588;19;19922;-66
2022/11/30 01:40:55;;;;;;;23.17;11.63;;;;;;;;;;6126688;19;19923;-66
2022/11/30 01:42:59;;;;;;;28.38;12.82;;;;;;;;;;6130772;19;20013;-66
2022/11/30 01:45:04;;;;;;;26.58;12.77;;;6.10;99.90;;;;;;6126692;19;19911;-66
2022/11/30 01:47:12;;;;;;;27.63;12.48;;;6.00;99.90;;;;;;6130493;19;19911;-67
2022/11/30 01:49:20;;;;;;;29.92;12.48;;;6.20;99.90;;;;;;6127532;19;20360;-67
2022/11/30 01:51:24;;;;;;;25.35;11.43;;;5.90;99.90;;;;;;6128056;19;19923;-67
2022/11/30 01:53:31;;;;;;;30.50;12.93;;;5.90;99.90;;;;;;6127791;19;19914;-67
2022/11/30 01:55:39;;;;;;;26.83;12.43;;;6.20;99.90;;;;;;6127857;19;19942;-68
2022/11/30 01:57:46;;;;;;;28.77;12.77;;;6.10;99.90;;;;;;6127451;19;19931;-67
2022/11/30 01:59:53;;;;;;;31.38;12.55;;;5.80;99.90;;;;;;6122872;19;20021;-68
2022/11/30 02:01:57;;;;;;;25.75;12.18;;;6.00;99.90;;;;;;6129707;19;19923;-67
2022/11/30 02:04:06;;;;;;;29.20;14.10;;;6.00;99.90;;;;;;6127758;19;19926;-67
2022/11/30 02:06:10;;;;;;;26.80;11.90;;;6.00;99.90;;;;;;6127846;19;20330;-68
2022/11/30 02:08:14;;;;;;;31.95;13.13;;;6.10;99.90;;;;;;6126329;19;20314;-68
2022/11/30 02:10:24;;;;;;;25.45;11.57;;;5.90;99.90;;;;;;6127192;19;20281;-68
2022/11/30 02:12:36;;;;;;;27.05;12.18;;;5.90;99.90;;;;;;6126981;19;19918;-67
2022/11/30 02:14:43;;;;;;;26.92;12.30;;;5.70;99.90;;;;;;6127180;19;19911;-68
2022/11/30 02:16:57;;;;;;;28.15;12.02;;;5.80;99.90;;;;;;6126294;19;19918;-68
2022/11/30 02:19:12;;;;;;;27.10;13.52;;;6.20;99.90;;;;;;6127973;19;19988;-67
2022/11/30 02:21:20;;;;;;;25.25;12.18;;;6.00;99.90;;;;;;6127359;19;19939;-67
2022/11/30 02:24:06;;;;;;;25.58;12.25;;;6.00;99.90;;;;;;6126564;19;19919;-67
2022/11/30 02:26:30;;;;;;;25.75;11.07;;;5.90;99.90;;;;;;6126064;19;19921;-68
2022/11/30 02:28:55;;;;;;;27.92;11.98;;;5.90;99.90;;;;;;6126134;19;19926;-68
2022/11/30 02:31:02;;;;;;;26.15;12.38;;;5.90;99.90;;;;;;6127060;19;19919;-67
2022/11/30 02:33:11;;;;;;;25.13;11.13;;;6.00;99.90;;;;;;6126538;19;19915;-67
2022/11/30 02:35:19;;;;;;;22.52;11.50;;;5.80;99.90;;;;;;6129260;19;19918;-67
2022/11/30 02:37:25;;;;;;;27.52;12.60;;;5.90;99.90;;;;;;6126289;19;19911;-65
2022/11/30 02:39:29;;;;;;;21.92;11.20;;;;;;;;;;6127164;19;19922;-67
2022/11/30 02:41:38;;;;;;;20.40;10.48;;;5.90;99.90;;;;;;6126231;19;20399;-67
2022/11/30 02:43:45;;;;;;;24.02;11.25;;;5.70;99.90;;;;;;6124842;19;19935;-67
2022/11/30 02:45:57;;;;;;;24.48;11.50;;;5.80;99.90;;;;;;6126903;19;19942;-68
2022/11/30 02:48:08;;;;;;;25.10;11.73;;;6.00;99.90;;;;;;6126724;19;20336;-68
2022/11/30 02:50:16;;;;;;;22.52;10.95;;;5.90;99.90;;;;;;6128639;19;19923;-67
2022/11/30 02:52:24;;;;;;;23.63;10.98;;;6.00;99.90;;;;;;6125220;19;20381;-67
2022/11/30 02:54:27;;;;;;;24.63;11.30;;;6.10;99.90;;;;;;6126289;19;19919;-68
2022/11/30 02:56:32;;;;;;;21.70;10.23;;;5.80;99.90;;;;;;6125652;19;20286;-68
2022/11/30 02:58:36;;;;;;;26.10;12.57;;;5.90;99.90;;;;;;6125887;19;19943;-67
2022/11/30 03:00:42;;;;;;;24.23;10.90;;;6.00;99.90;;;;;;6127211;19;20302;-67
2022/11/30 03:02:46;;;;;;;23.27;11.68;;;6.00;99.90;;;;;;6126397;19;20252;-67
2022/11/30 03:04:50;;;;;;;24.70;10.35;;;5.70;99.90;;;;;;6127291;19;20001;-67
2022/11/30 03:06:54;;;;;;;21.42;10.70;;;5.70;99.90;;;;;;6126202;19;20268;-67
2022/11/30 03:08:58;;;;;;;24.77;11.45;;;6.00;99.90;;;;;;6126899;19;19922;-68
2022/11/30 03:11:04;;;;;;;25.27;11.27;;;5.80;99.90;;;;;;6127542;19;19922;-67
2022/11/30 03:13:07;;;;;;;27.20;11.77;;;5.90;99.90;;;;;;6127207;19;19922;-67
2022/11/30 03:15:12;;;;;;;28.65;12.85;;;5.90;99.90;;;;;;6127179;19;19926;-67
2022/11/30 03:17:19;;;;;;;26.92;11.65;;;5.90;99.90;;;;;;6116306;19;20014;-68
2022/11/30 03:19:23;;;;;;;24.35;12.00;;;5.80;99.90;;;;;;6126671;19;19921;-67
2022/11/30 03:21:27;;;;;;;25.10;11.35;;;5.70;99.90;;;;;;6125293;19;19919;-67
2022/11/30 03:23:31;;;;;;;28.15;13.00;;;;;;;;;;6127015;19;19923;-67
2022/11/30 03:25:36;;;;;;;27.70;11.68;;;;;;;;;;6125333;19;19923;-67
2022/11/30 03:27:39;;;;;;;24.27;10.77;;;5.90;99.90;;;;;;6125357;19;20349;-67
2022/11/30 03:29:43;;;;;;;24.40;10.95;;;6.10;99.90;;;;;;6126313;19;19926;-67
2022/11/30 03:31:47;;;;;;;25.83;11.80;;;5.70;99.90;;;;;;6125326;19;19929;-66
2022/11/30 03:33:54;;;;;;;25.58;12.35;;;5.80;99.90;;;;;;6124443;19;20262;-67
2022/11/30 03:36:02;;;;;;;25.52;11.13;;;5.80;99.90;;;;;;6127424;19;20312;-66
2022/11/30 03:38:06;;;;;;;25.58;11.13;;;5.60;99.90;;;;;;6126645;19;19939;-67
2022/11/30 03:40:11;;;;;;;25.48;12.02;;;5.80;99.90;;;;;;6127177;19;19918;-67
2022/11/30 03:42:16;;;;;;;24.23;12.00;;;6.00;99.90;;;;;;6123099;19;19918;-66
2022/11/30 03:44:20;;;;;;;23.17;10.25;;;5.90;99.90;;;;;;6123343;19;19934;-67
2022/11/30 03:46:25;;;;;;;23.75;11.13;;;5.90;99.90;;;;;;6125904;19;19947;-67
2022/11/30 03:48:30;;;;;;;20.23;10.55;;;6.00;99.90;;;;;;6123410;19;19915;-66
2022/11/30 03:50:36;;;;;;;24.33;10.90;;;6.00;99.90;;;;;;6126454;19;19950;-66
2022/11/30 03:52:40;;;;;;;22.17;11.32;;;6.10;99.90;;;;;;6124600;19;19915;-67
2022/11/30 03:54:44;;;;;;;23.00;10.93;;;;;;;;;;6126360;19;19927;-67
2022/11/30 03:56:48;;;;;;;20.83;10.35;;;;;;;;;;6124035;19;19917;-70
2022/11/30 03:58:52;;;;;;;24.02;10.93;;;5.90;99.90;;;;;;6123158;19;19911;-67
2022/11/30 04:01:02;;;;;;;22.38;11.20;;;5.80;99.90;;;;;;6125821;19;20377;-67
2022/11/30 04:03:06;;;;;;;26.02;11.85;;;6.00;99.90;;;;;;6126635;19;19931;-67
2022/11/30 04:05:11;;;;;;;26.52;11.30;;;5.80;99.90;;;;;;6130113;19;20325;-67
2022/11/30 04:07:17;;;;;;;26.40;11.93;;;5.80;99.90;;;;;;6129645;19;19939;-67
2022/11/30 04:09:21;;;;;;;24.52;10.98;;;5.90;99.90;;;;;;6129903;19;19955;-66
2022/11/30 04:11:25;;;;;;;25.27;11.65;;;5.90;99.90;;;;;;6130974;19;19923;-66
2022/11/30 04:13:30;;;;;;;25.60;10.98;;;6.10;99.90;;;;;;6131573;19;19922;-66
2022/11/30 04:15:34;;;;;;;26.45;12.30;;;5.90;99.90;;;;;;6129685;19;19918;-66
2022/11/30 04:17:38;;;;;;;24.55;10.90;;;5.90;99.90;;;;;;6127967;19;20349;-66
2022/11/30 04:19:41;;;;;;;26.73;12.15;;;5.80;99.90;;;;;;6130594;19;19915;-66
2022/11/30 04:21:46;;;;;;;22.98;11.02;;;;;;;;;;6129055;19;19924;-65
2022/11/30 04:23:52;;;;;;;22.10;11.38;;;5.90;99.90;;;;;;6129916;19;20364;-67
2022/11/30 04:25:56;;;;;;;26.85;11.43;;;5.80;99.90;;;;;;6129165;19;19918;-68
2022/11/30 04:28:00;;;;;;;23.55;10.65;;;5.70;99.90;;;;;;6128919;19;19919;-67
2022/11/30 04:30:04;;;;;;;25.63;10.25;;;;;;;;;;6129698;19;20341;-68
2022/11/30 04:32:08;;;;;;;19.88;10.20;;;6.00;99.90;;;;;;6128606;19;20425;-67
2022/11/30 04:34:12;;;;;;;21.25;10.23;;;6.00;99.90;;;;;;6129567;19;19939;-67
2022/11/30 04:36:20;;;;;;;20.75;10.55;;;5.80;99.90;;;;;;6130136;19;19935;-66
2022/11/30 04:38:25;;;;;;;23.25;11.82;;;5.70;99.90;;;;;;6131520;19;19922;-66
2022/11/30 04:40:32;;;;;;;21.73;10.32;;;5.20;99.90;;;;;;6131516;19;19926;-66
2022/11/30 04:42:36;;;;;;;24.40;10.90;;;5.90;99.90;;;;;;6129021;19;19918;-66
2022/11/30 04:44:40;;;;;;;20.42;10.48;;;5.90;99.90;;;;;;6129820;19;20345;-66
2022/11/30 04:46:44;;;;;;;21.88;10.50;;;6.00;99.90;;;;;;6130271;19;20283;-67
2022/11/30 04:48:48;;;;;;;21.27;9.80;;;;;;;;;;6126943;19;19915;-66
2022/11/30 04:50:52;;;;;;;20.92;10.80;;;5.90;99.90;;;;;;6131406;19;19926;-66
2022/11/30 04:52:56;;;;;;;25.23;10.20;;;5.70;99.90;;;;;;6130628;19;19919;-67
2022/11/30 04:54:59;;;;;;;18.95;10.05;;;5.80;99.90;;;;;;6128730;19;19940;-67
2022/11/30 04:57:06;;;;;;;19.40;9.13;;;6.00;99.90;;;;;;6128370;19;19922;-66
2022/11/30 04:59:10;;;;;;;18.33;9.93;;;5.70;99.90;;;;;;6129810;19;19923;-67
2022/11/30 05:01:14;;;;;;;21.05;9.57;;;5.90;99.90;;;;;;6131290;19;19950;-67
2022/11/30 05:03:17;;;;;;;17.95;9.68;;;5.80;99.90;;;;;;6131246;19;19918;-67
2022/11/30 05:05:21;;;;;;;17.90;8.50;;;5.80;99.90;;;;;;6128684;19;20357;-67
2022/11/30 05:07:25;;;;;;;17.92;9.88;;;5.80;99.90;;;;;;6128074;19;19943;-67
2022/11/30 05:09:29;;;;;;;18.35;9.30;;;5.80;99.90;;;;;;6127339;19;19943;-67
2022/11/30 05:11:33;;;;;;;17.35;9.50;;;5.70;99.90;;;;;;6128469;19;19923;-67
2022/11/30 05:13:40;;;;;;;17.80;8.93;;;5.80;99.90;;;;;;6128255;19;19918;-67
2022/11/30 05:15:43;;;;;;;18.98;10.13;;;5.80;99.90;;;;;;6128619;19;20278;-67
2022/11/30 05:17:47;;;;;;;16.02;8.23;;;5.80;99.90;;;;;;6127415;19;20042;-67
2022/11/30 05:19:51;;;;;;;21.30;10.70;;;5.70;99.90;;;;;;6129313;19;19914;-67
2022/11/30 05:21:55;;;;;;;17.15;9.63;;;5.80;99.90;;;;;;6127823;19;19914;-66
2022/11/30 05:23:59;;;;;;;17.58;9.88;;;5.80;99.90;;;;;;6128148;19;19922;-66
2022/11/30 05:26:04;;;;;;;17.83;9.05;;;5.80;99.90;;;;;;6127704;19;19918;-67
2022/11/30 05:28:07;;;;;;;16.20;9.18;;;5.90;99.90;;;;;;6128318;19;19917;-67
2022/11/30 05:30:15;;;;;;;17.40;9.43;;;5.70;99.90;;;;;;6127584;19;19970;-67
2022/11/30 05:32:19;;;;;;;18.33;8.30;;;;;;;;;;6128731;19;20253;-67
2022/11/30 05:34:23;;;;;;;18.23;8.13;;;;;;;;;;6127932;19;19910;-67
2022/11/30 05:36:27;;;;;;;18.40;9.88;;;5.90;99.90;;;;;;6127947;19;19915;-67
2022/11/30 05:38:31;;;;;;;19.05;9.60;;;5.70;99.90;;;;;;6127799;19;20355;-67
2022/11/30 05:40:35;;;;;;;15.93;8.60;;;5.90;99.90;;;;;;6129128;19;19926;-67
2022/11/30 05:42:40;;;;;;;16.75;8.23;;;;;;;;;;6125847;19;19946;-67
2022/11/30 05:44:44;;;;;;;21.60;9.15;;;5.60;99.90;;;;;;6130689;19;19986;-67
2022/11/30 05:46:50;;;;;;;17.75;8.88;;;5.50;99.90;;;;;;6127908;19;20256;-67
2022/11/30 05:48:54;;;;;;;17.88;8.13;;;;;;;;;;6125994;19;19923;-67
2022/11/30 05:51:06;;;;;;;17.58;8.50;;;5.60;99.90;;;;;;6130309;19;19955;-67
2022/11/30 05:53:09;;;;;;;15.30;7.93;;;5.80;99.90;;;;;;6127357;19;19915;-66
2022/11/30 05:55:13;;;;;;;13.13;8.73;;;;;;;;;;6127481;19;19922;-67
2022/11/30 05:57:17;;;;;;;17.02;8.15;;;5.70;99.90;;;;;;6127018;19;19915;-67
2022/11/30 05:59:21;;;;;;;15.88;8.85;;;5.70;99.90;;;;;;6127172;19;19965;-67
2022/11/30 06:01:28;;;;;;;16.05;9.43;;;5.70;99.90;;;;;;6127213;19;19914;-67
2022/11/30 06:03:36;;;;;;;17.88;9.13;;;6.00;99.90;;;;;;6126795;19;19919;-67
2022/11/30 06:05:40;;;;;;;15.70;8.60;;;5.90;99.90;;;;;;6127415;19;20540;-67
2022/11/30 06:07:44;;;;;;;18.33;9.27;;;5.80;99.90;;;;;;6125792;19;19934;-67
2022/11/30 06:09:48;;;;;;;19.15;8.68;;;5.70;99.90;;;;;;6126306;19;19915;-66
2022/11/30 06:11:51;;;;;;;20.70;9.52;;;5.80;99.90;;;;;;6128151;19;19943;-66
2022/11/30 06:13:55;;;;;;;19.58;9.38;;;5.70;99.90;;;;;;6126109;19;19959;-67
2022/11/30 06:16:00;;;;;;;17.63;9.30;;;5.70;99.90;;;;;;6130301;19;19940;-67
2022/11/30 06:18:05;;;;;;;20.10;9.20;;;5.80;99.90;;;;;;6126126;19;19918;-67
2022/11/30 06:20:12;;;;;;;18.73;8.75;;;5.80;99.90;;;;;;6127198;19;19922;-67
2022/11/30 06:22:16;;;;;;;17.98;8.50;;;5.90;99.90;;;;;;6126849;19;19935;-67
2022/11/30 06:24:20;;;;;;;12.35;8.50;;;5.70;99.90;;;;;;6127038;19;19915;-67
2022/11/30 06:26:24;;;;;;;16.60;8.45;;;5.70;99.90;;;;;;6125115;19;19923;-68
2022/11/30 06:28:28;;;;;;;16.77;8.20;;;6.00;99.90;;;;;;6126501;19;19981;-67
2022/11/30 06:30:32;;;;;;;15.05;8.35;;;5.90;99.90;;;;;;6126833;19;19919;-68
2022/11/30 06:32:36;;;;;;;16.05;8.65;;;5.70;99.90;;;;;;6126382;19;19910;-67
2022/11/30 06:34:40;;;;;;;15.20;7.57;;;5.80;99.90;;;;;;6129569;19;19943;-68
2022/11/30 06:36:46;;;;;;;12.85;7.72;;;5.90;99.90;;;;;;6126667;19;20509;-68
2022/11/30 06:38:50;;;;;;;13.00;6.95;;;5.80;99.90;;;;;;6128300;19;19911;-68
2022/11/30 06:40:54;;;;;;;13.80;7.45;;;5.80;99.90;;;;;;6126744;19;20299;-68
2022/11/30 06:42:59;;;;;;;11.32;6.93;;;5.50;99.90;;;;;;6126487;19;19929;-68
2022/11/30 06:45:04;;;;;;;13.02;7.05;;;5.70;99.90;;;;;;6129034;19;20574;-67
2022/11/30 06:47:22;;;;;;;12.93;7.20;;;;;;;;;;6126449;19;19914;-67
2022/11/30 06:49:26;;;;;;;14.40;8.05;;;;;;;;;;6126397;19;19918;-67
2022/11/30 06:51:30;;;;;;;13.18;7.25;;;5.60;99.90;;;;;;6129268;19;19935;-67
2022/11/30 06:53:36;;;;;;;13.07;6.97;;;5.70;99.90;;;;;;6127629;19;19922;-67
2022/11/30 06:55:41;;;;;;;13.35;7.40;;;5.50;99.90;;;;;;6125290;19;19926;-66
2022/11/30 06:57:45;;;;;;;14.85;7.38;;;;;;;;;;6125897;19;19911;-66
2022/11/30 06:59:49;;;;;;;14.68;8.27;;;5.70;99.90;;;;;;6127148;19;19939;-68
2022/11/30 07:01:53;;;;;;;17.10;8.30;;;5.70;99.90;;;;;;6126221;19;19933;-68
2022/11/30 07:03:57;;;;;;;17.30;8.73;;;5.50;99.90;;;;;;6126944;19;20349;-67
2022/11/30 07:06:01;;;;;;;12.73;8.25;;;4.50;99.90;;;;;;6125942;19;19963;-67
2022/11/30 07:08:05;;;;;;;14.70;8.27;;;5.60;99.90;;;;;;6123878;19;20022;-68
2022/11/30 07:10:12;;;;;;;13.52;7.22;;;5.70;99.90;;;;;;6124701;19;19914;-68
2022/11/30 07:12:16;;;;;;;13.32;8.02;;;5.40;99.90;;;;;;6125878;19;19915;-65
2022/11/30 07:14:20;;;;;;;16.00;7.90;;;5.60;99.90;;;;;;6124210;19;20257;-66
2022/11/30 07:16:24;;;;;;;13.02;7.60;;;5.60;99.90;;;;;;6125556;19;19919;-67
2022/11/30 07:18:28;;;;;;;14.52;8.90;;;5.60;99.90;;;;;;6122233;19;20270;-73
2022/11/30 07:20:32;;;;;;;13.70;7.25;;;;;;;;;;6128506;19;20274;-72
2022/11/30 07:22:36;;;;;;;16.42;8.30;;;5.40;99.90;;;;;;6127438;19;19944;-72
2022/11/30 07:27:00;;;;;;;14.82;7.72;;;5.30;99.90;;;;;;6124534;19;19926;-66
2022/11/30 07:29:04;;;;;;;15.48;8.43;;;5.60;99.90;;;;;;6126434;19;19951;-66
2022/11/30 07:31:19;;;;;;;16.17;9.00;;;5.60;99.90;;;;;;6122639;19;19926;-66
2022/11/30 07:33:23;;;;;;;18.75;9.50;;;;;;;;;;6125960;19;20388;-66
2022/11/30 07:35:27;;;;;;;18.08;9.13;;;5.60;99.90;;;;;;6122219;19;20354;-66
2022/11/30 07:37:31;;;;;;;17.42;9.23;;;5.70;99.90;;;;;;6124239;19;19914;-66
2022/11/30 07:39:35;;;;;;;18.85;9.25;;;5.50;99.90;;;;;;6130159;19;19914;-66
2022/11/30 07:41:39;;;;;;;17.27;9.23;;;5.70;99.90;;;;;;6130483;19;19944;-66
2022/11/30 07:43:46;;;;;;;17.23;9.25;;;5.70;99.90;;;;;;6133123;19;19943;-66
2022/11/30 07:45:54;;;;;;;19.05;9.45;;;5.50;99.90;;;;;;6130287;19;19914;-66
2022/11/30 07:48:00;;;;;;;21.85;9.07;;;5.60;99.90;;;;;;6129805;19;19936;-66
2022/11/30 07:50:04;;;;;;;20.05;9.70;;;;;;;;;;6128481;19;19922;-65
2022/11/30 07:52:08;;;;;;;20.95;9.82;;;5.40;99.90;;;;;;6130141;19;19939;-66
2022/11/30 07:54:12;;;;;;;23.45;10.30;;;5.80;99.90;;;;;;6130443;19;19929;-66
2022/11/30 07:56:18;;;;;;;21.67;10.35;;;5.80;99.90;;;;;;6129307;19;19910;-65
2022/11/30 07:58:21;;;;;;;17.10;9.02;;;5.60;99.90;;;;;;6131780;19;19942;-66
2022/11/30 08:00:28;;;;;;;22.73;10.05;;;5.50;99.90;;;;;;6129820;19;19923;-67
2022/11/30 08:02:32;;;;;;;19.92;9.75;;;5.60;99.90;;;;;;6130295;19;19954;-66
2022/11/30 08:04:36;;;;;;;21.85;11.07;;;;;;;;;;6130081;19;19918;-66
2022/11/30 08:06:40;;;;;;;23.65;11.65;;;;;;;;;;6129615;19;19914;-66
2022/11/30 08:08:45;;;;;;;21.60;10.88;;;5.60;99.90;;;;;;6129688;19;20329;-66
2022/11/30 08:10:49;;;;;;;21.13;10.43;;;5.70;99.90;;;;;;6127516;19;20345;-66
2022/11/30 08:12:53;;;;;;;20.63;10.40;;;5.90;99.90;;;;;;6130656;19;19922;-66
2022/11/30 08:14:57;;;;;;;22.77;11.10;;;5.50;99.90;;;;;;6129552;19;19926;-65
2022/11/30 08:17:03;;;;;;;25.15;12.40;;;5.80;99.90;;;;;;6128716;19;20274;-65
2022/11/30 08:19:07;;;;;;;24.08;11.27;;;5.50;99.90;;;;;;6129149;19;19915;-66
2022/11/30 08:21:13;;;;;;;24.23;11.70;;;5.70;99.90;;;;;;6130018;19;19915;-66
2022/11/30 08:23:18;;;;;;;25.63;11.80;;;6.00;99.90;;;;;;6124654;19;20558;-66
2022/11/30 08:25:21;;;;;;;28.27;12.07;;;5.60;99.90;;;;;;6129594;19;19918;-66
2022/11/30 08:27:25;;;;;;;27.33;12.55;;;5.70;99.90;;;;;;6129005;19;19915;-66
2022/11/30 08:29:29;;;;;;;25.67;12.57;;;;;;;;;;6129156;19;19919;-66
2022/11/30 08:31:35;;;;;;;24.67;10.38;;;5.70;99.90;;;;;;6132091;19;19911;-66
2022/11/30 08:33:42;;;;;;;24.80;10.88;;;5.60;99.90;;;;;;6127706;19;20270;-66
2022/11/30 08:35:46;;;;;;;24.80;10.98;;;5.70;99.90;;;;;;6132877;19;19918;-66
2022/11/30 08:37:50;;;;;;;23.17;11.50;;;;;;;;;;6130876;19;20285;-65
2022/11/30 08:39:54;;;;;;;22.83;11.10;;;5.90;99.90;;;;;;6129665;19;19939;-65
2022/11/30 08:41:58;;;;;;;23.52;11.95;;;5.80;99.90;;;;;;6129319;19;20290;-66
2022/11/30 08:44:03;;;;;;;26.33;11.95;;;5.70;99.90;;;;;;6129250;19;19910;-66
2022/11/30 08:46:09;;;;;;;23.90;10.18;;;5.40;99.90;;;;;;6129114;19;20420;-66
2022/11/30 08:48:13;;;;;;;28.05;11.68;;;;;;;;;;6128466;19;19919;-67
2022/11/30 08:50:20;;;;;;;27.60;12.45;;;5.90;99.90;;;;;;6127391;19;19936;-65
2022/11/30 08:52:24;;;;;;;26.00;10.90;;;;;;;;;;6128879;19;19943;-66
2022/11/30 08:54:28;;;;;;;27.08;11.00;;;5.70;99.90;;;;;;6130655;19;19919;-66
2022/11/30 08:56:32;;;;;;;23.60;11.77;;;5.90;99.90;;;;;;6128039;19;19922;-65
2022/11/30 08:58:38;;;;;;;27.75;11.57;;;5.80;99.90;;;;;;6128714;19;19918;-66
2022/11/30 09:00:41;;;;;;;26.83;12.50;;;6.00;99.90;;;;;;6128691;19;19923;-67
2022/11/30 09:02:46;;;;;;;23.67;11.30;;;6.10;99.90;;;;;;6122033;19;20021;-67
2022/11/30 09:04:52;;;;;;;26.17;12.32;;;6.10;99.90;;;;;;6128745;19;20333;-66
2022/11/30 09:06:59;;;;;;;25.45;10.90;;;5.90;99.90;;;;;;6128523;19;19918;-67
2022/11/30 09:09:03;;;;;;;25.08;11.63;;;5.90;99.90;;;;;;6130088;19;19947;-67
2022/11/30 09:11:11;;;;;;;25.40;12.00;;;5.90;99.90;;;;;;6126849;19;19923;-67
2022/11/30 09:13:15;;;;;;;27.75;12.75;;;5.80;99.90;;;;;;6129510;19;19918;-67
2022/11/30 09:15:19;;;;;;;29.50;14.27;;;5.80;99.90;;;;;;6129568;19;19915;-66
2022/11/30 09:17:23;;;;;;;29.10;13.48;;;6.00;99.90;;;;;;6129906;19;19915;-65
2022/11/30 09:19:27;;;;;;;29.88;12.93;;;;;;;;;;6131158;19;19925;-66
2022/11/30 09:21:31;;;;;;;33.47;14.57;;;6.00;99.90;;;;;;6128879;19;19947;-67
2022/11/30 09:23:37;;;;;;;33.78;14.25;;;6.00;99.90;;;;;;6127933;19;20256;-67
2022/11/30 09:25:41;;;;;;;38.42;15.57;;;6.00;99.90;;;;;;6128556;19;20283;-67
2022/11/30 09:27:45;;;;;;;34.47;14.57;;;5.80;99.90;;;;;;6127803;19;19943;-66
2022/11/30 09:29:49;;;;;;;30.88;13.07;;;5.90;99.90;;;;;;6129507;19;20264;-67
2022/11/30 09:31:53;;;;;;;32.25;13.82;;;;;;;;;;6130059;19;19922;-66
2022/11/30 09:33:58;;;;;;;29.83;13.48;;;5.70;99.90;;;;;;6126495;19;19955;-66
2022/11/30 09:36:04;;;;;;;39.08;16.10;;;6.20;99.90;;;;;;6127641;19;20365;-66
2022/11/30 09:38:08;;;;;;;31.83;14.13;;;7.00;99.90;;;;;;6127868;19;20343;-65
2022/11/30 09:40:16;;;;;;;33.67;14.55;;;5.90;99.90;;;;;;6127689;19;19922;-66
2022/11/30 09:42:42;;;;;;;33.47;14.13;;;6.00;99.90;;;;;;6127635;19;19940;-66
2022/11/30 09:44:53;;;;;;;40.10;15.25;;;5.80;99.90;;;;;;6127598;19;19914;-66
2022/11/30 09:47:05;;;;;;;37.72;15.13;;;5.80;99.90;;;;;;6130108;19;19947;-66
2022/11/30 09:49:21;;;;;;;37.50;15.90;;;5.80;99.90;;;;;;6127630;19;19923;-67
2022/11/30 09:51:29;;;;;;;37.97;16.63;;;5.60;99.90;;;;;;6125659;19;19927;-66
2022/11/30 09:53:42;;;;;;;35.28;14.80;;;5.90;99.90;;;;;;6127455;19;19935;-66
2022/11/30 09:55:48;;;;;;;36.50;15.48;;;6.20;99.90;;;;;;6127482;19;19931;-66
2022/11/30 09:57:55;;;;;;;38.90;15.63;;;6.10;99.90;;;;;;6126849;19;20381;-66
2022/11/30 10:00:01;;;;;;;41.58;16.27;;;5.80;99.90;;;;;;6126766;19;19944;-65
2022/11/30 10:02:16;;;;;;;37.88;14.65;;;6.00;99.90;;;;;;6128774;19;20357;-65
2022/11/30 10:04:24;;;;;;;38.08;15.18;;;6.00;99.90;;;;;;6127184;19;19918;-65
2022/11/30 10:06:34;;;;;;;34.78;15.48;;;6.00;99.90;;;;;;6127303;19;20274;-66
2022/11/30 10:08:47;;;;;;;42.08;15.43;;;6.20;99.90;;;;;;6127631;19;19936;-65
2022/11/30 10:11:07;;;;;;;39.50;16.42;;;6.20;99.90;;;;;;6126025;19;19918;-66
2022/11/30 10:13:26;;;;;;;37.75;14.75;;;6.20;99.90;;;;;;6126716;19;19922;-66
2022/11/30 10:15:42;;;;;;;40.30;15.02;;;6.30;99.90;;;;;;6127326;19;19918;-65
2022/11/30 10:17:55;;;;;;;40.25;17.17;;;6.00;99.90;;;;;;6125603;19;19926;-66
2022/11/30 10:20:13;;;;;;;41.97;16.20;;;6.00;99.90;;;;;;6126817;19;19939;-65
2022/11/30 10:22:26;;;;;;;41.08;15.35;;;6.10;99.90;;;;;;6126620;19;20344;-66
2022/11/30 10:24:39;;;;;;;40.53;15.10;;;6.50;99.90;;;;;;6127767;19;19938;-65
2022/11/30 10:26:55;;;;;;;40.17;16.65;;;6.20;99.90;;;;;;6126116;19;19940;-66
2022/11/30 10:29:07;;;;;;;40.58;16.55;;;6.30;99.90;;;;;;6129894;19;19934;-65
2022/11/30 10:31:13;;;;;;;42.95;16.83;;;6.00;99.90;;;;;;6125541;19;19918;-66
2022/11/30 10:33:20;;;;;;;42.80;18.38;;;6.50;99.90;;;;;;6125819;19;19922;-66
2022/11/30 10:35:35;;;;;;;48.58;17.48;;;6.10;99.90;;;;;;6126545;19;19919;-66
2022/11/30 10:37:41;;;;;;;41.17;16.42;;;6.50;99.90;;;;;;6126333;19;19945;-66
2022/11/30 10:39:54;;;;;;;53.17;17.05;;;6.20;99.90;;;;;;6128327;19;20261;-66
2022/11/30 10:42:06;;;;;;;45.15;17.25;;;6.20;99.90;;;;;;6126751;19;19926;-66
2022/11/30 10:44:17;;;;;;;44.70;17.67;;;6.30;99.90;;;;;;6125993;19;19911;-66
2022/11/30 10:46:27;;;;;;;46.08;18.25;;;5.90;99.90;;;;;;6127579;19;20270;-66
2022/11/30 10:48:39;;;;;;;42.47;17.73;;;6.10;99.90;;;;;;6126262;19;19939;-66
2022/11/30 10:50:43;;;;;;;42.90;17.88;;;6.10;99.90;;;;;;6125624;19;19918;-66
2022/11/30 10:52:50;;;;;;;44.70;16.83;;;6.10;99.90;;;;;;6126014;19;19943;-66
2022/11/30 10:54:56;;;;;;;45.47;18.70;;;6.10;99.90;;;;;;6127647;19;20309;-66
2022/11/30 10:57:05;;;;;;;58.72;18.48;;;6.00;99.90;;;;;;6125073;19;20146;-66
2022/11/30 10:59:18;;;;;;;51.88;19.27;;;6.10;99.90;;;;;;6125757;19;19943;-66
2022/11/30 11:01:33;;;;;;;51.00;19.55;;;6.10;99.90;;;;;;6125989;19;20431;-66